Tahiti/Papeete, French Polynesia
Current Conditions -  °F | °C
As of 3:00 AM on Thursday 23 Oct 2014 (Local Time) from NTAA Reporting Station
Few Clouds Few Clouds  
Wind Chill: 75°   Ceiling: Unl
Heat Index: 75°   Visibility: 6mi
Dew Point: 70°   Wind: 2mph
Humidity: 83%   Direction: 180°S
Pressure: 29.85"   Gusts: NA
Location:  17.69°S, 149.38°W
Report Text: NTAA 231200Z 18002KT 9999 FEW016 24/21 Q1011 NOSIG
Loading
Personal Weather Stations






























Interactive Weather Map
Tropical Storm Tracking
New forecast layout! Learn more

10-Day Weather Forecast

Advertisements
Track Severe Weather on mobile